Stations météo

réclame
Mon MeteoGroup
Otranto, Italie (16334): Température de l'air & dewpoint: 16.07.2018 08:00:00 - 22.07.2018 08:00:00 (CEST)Otranto, Italie (16334): Vitesse du vent: 16.07.2018 08:00:00 - 22.07.2018 08:00:00 (CEST)Otranto, Italie (16334): Direction du vent: 16.07.2018 08:00:00 - 22.07.2018 08:00:00 (CEST)Otranto, Italie (16334): reduced air pressure: 16.07.2018 08:00:00 - 22.07.2018 08:00:00 (CEST)Otranto, Italie (16334): Quantités de précipitations: 16.07.2018 08:00:00 - 22.07.2018 08:00:00 (CEST)
Date & Time tt [°C] td [°C] ff [km/h] ff [knt] dd ppp [hPa] rr [mm]
22.07.2018 08:00:00 25,9 25,9 24 13 S 1010,6 0,0
22.07.2018 07:00:00 25,4 25,3 24 13 S 1010,3 -
22.07.2018 06:00:00 25,3 25,2 22 12 S 1010,1 -
22.07.2018 05:00:00 25,4 25,3 15 8 SE 1010,2 -
22.07.2018 04:00:00 25,4 25,3 18 10 S 1010,2 -
22.07.2018 03:00:00 25,5 25,4 22 12 SSE 1009,2 -
22.07.2018 02:00:00 25,3 23,7 15 8 S 1011,1 0,0
22.07.2018 01:00:00 25,3 22,7 11 6 SSW 1011,6 -
22.07.2018 00:00:00 25,9 22,9 9 5 SSW 1011,5 -
21.07.2018 23:00:00 25,9 23,5 9 5 SSW 1011,9 -
21.07.2018 22:00:00 26,3 23,1 8 4 W 1012,6 -
21.07.2018 21:00:00 26,9 23,5 8 4 SW 1012,3 -
21.07.2018 20:00:00 28,4 24,4 5 3 S 1012,0 0,0
21.07.2018 19:00:00 29,6 24,9 11 6 S 1012,2 -
21.07.2018 18:00:00 30,8 24,4 9 5 S 1012,6 -
21.07.2018 17:00:00 30,4 22,3 9 5 SSW 1013,0 -
21.07.2018 16:00:00 30,2 25,2 8 4 S 1012,9 -
21.07.2018 15:00:00 30,1 25,6 5 3 S 1013,3 -
21.07.2018 14:00:00 29,7 25,4 9 5 E 1013,4 0,0
21.07.2018 13:00:00 29,7 25,4 11 6 NE 1013,5 -
21.07.2018 12:00:00 29,5 22,4 8 4 E 1013,5 -
21.07.2018 11:00:00 29,7 23,8 9 5 NNE 1013,5 -
21.07.2018 10:00:00 29,0 22,4 9 5 N 1013,1 -
21.07.2018 09:00:00 27,7 21,4 9 5 NNE 1012,6 -
21.07.2018 08:00:00 25,7 21,3 11 6 NNW 1012,6 0,0
21.07.2018 07:00:00 23,3 19,8 9 5 NNW 1012,3 -
21.07.2018 06:00:00 21,8 18,7 9 5 NW 1012,4 -
21.07.2018 05:00:00 21,7 19,0 11 6 WNW 1012,1 -
21.07.2018 04:00:00 21,5 19,5 11 6 NW 1012,1 -
21.07.2018 03:00:00 21,4 21,3 9 5 NW 1012,3 -
21.07.2018 02:00:00 21,7 21,6 9 5 WNW 1012,4 0,0
21.07.2018 01:00:00 21,7 21,6 8 4 NW 1012,5 -
21.07.2018 00:00:00 22,0 21,9 9 5 NW 1012,8 -
20.07.2018 23:00:00 22,0 21,9 9 5 WNW 1012,8 -
20.07.2018 22:00:00 22,6 22,5 8 4 NW 1012,5 -
20.07.2018 21:00:00 23,9 23,5 13 7 NNW 1011,6 -
20.07.2018 20:00:00 25,5 23,9 16 9 N 1011,2 0,0
20.07.2018 19:00:00 27,4 24,4 16 9 N 1011,3 -
20.07.2018 18:00:00 27,6 25,0 21 11 N 1011,3 -
20.07.2018 17:00:00 28,0 25,6 24 13 NNW 1011,4 -
20.07.2018 16:00:00 28,8 26,0 22 12 N 1011,6 -
20.07.2018 15:00:00 28,2 25,6 28 15 N 1011,7 -
20.07.2018 14:00:00 28,0 26,4 24 13 N 1011,9 0,0
20.07.2018 13:00:00 28,1 26,9 22 12 N 1012,0 -
20.07.2018 12:00:00 27,7 26,1 24 13 NNW 1012,0 -
20.07.2018 11:00:00 27,6 25,4 26 14 N 1011,7 -
20.07.2018 10:00:00 28,1 26,9 18 10 N 1011,3 -
20.07.2018 09:00:00 27,6 25,0 15 8 NNW 1011,0 -
20.07.2018 08:00:00 25,3 24,2 15 8 NNW 1010,8 0,0
20.07.2018 07:00:00 23,5 21,3 15 8 NW 1010,9 -
20.07.2018 06:00:00 22,7 19,2 15 8 NW 1011,0 -
20.07.2018 05:00:00 22,7 19,2 13 7 WNW 1010,9 -
20.07.2018 04:00:00 22,4 19,7 11 6 NW 1011,2 -
20.07.2018 03:00:00 21,7 20,3 9 5 WNW 1011,6 -
20.07.2018 02:00:00 21,8 21,7 9 5 WNW 1011,7 0,0
20.07.2018 01:00:00 22,4 22,3 8 4 NNW 1011,8 -
20.07.2018 00:00:00 23,9 22,5 11 6 NNE 1011,6 -
19.07.2018 23:00:00 24,3 21,7 11 6 NNW 1011,5 -
19.07.2018 22:00:00 24,8 22,0 11 6 NNW 1011,5 -
19.07.2018 21:00:00 25,8 22,4 15 8 NNW 1011,2 -
19.07.2018 20:00:00 27,2 22,8 18 10 N 1010,7 0,0
19.07.2018 19:00:00 29,0 24,7 18 10 N 1010,8 -
19.07.2018 18:00:00 29,5 24,1 22 12 N 1010,8 -
19.07.2018 17:00:00 29,4 25,5 22 12 NNW 1011,0 -
19.07.2018 16:00:00 29,2 25,1 21 11 N 1011,2 -
19.07.2018 15:00:00 28,7 26,3 22 12 N 1011,4 -
19.07.2018 14:00:00 29,1 27,3 21 11 N 1011,6 0,0
19.07.2018 13:00:00 28,5 26,1 24 13 NNE 1011,6 -
19.07.2018 12:00:00 28,1 25,3 26 14 N 1011,7 -
19.07.2018 11:00:00 28,9 24,6 24 13 NNW 1011,6 -
19.07.2018 10:00:00 28,6 24,3 21 11 N 1011,3 -
19.07.2018 09:00:00 27,4 24,0 21 11 NNW 1011,3 -
19.07.2018 08:00:00 24,7 22,5 11 6 NNW 1011,2 0,0
19.07.2018 07:00:00 22,0 20,0 9 5 NW 1011,3 -
19.07.2018 06:00:00 20,6 19,7 9 5 NW 1011,3 -
19.07.2018 05:00:00 20,3 18,9 9 5 WNW 1011,3 -
19.07.2018 04:00:00 21,9 20,3 9 5 NW 1011,3 -
19.07.2018 03:00:00 21,4 20,0 9 5 NW 1011,5 -
19.07.2018 02:00:00 21,5 20,1 5 3 WNW 1011,6 0,0
19.07.2018 01:00:00 22,3 21,9 5 3 NNW 1011,9 -
19.07.2018 00:00:00 22,6 22,0 4 2 NNW 1012,1 -
18.07.2018 23:00:00 23,0 22,4 11 6 NW 1011,7 -
18.07.2018 22:00:00 24,0 22,4 13 7 NW 1011,7 -
18.07.2018 21:00:00 24,8 23,7 21 11 NNW 1011,3 -
18.07.2018 20:00:00 26,0 23,4 22 12 NNW 1011,2 0,0
18.07.2018 19:00:00 27,5 24,3 18 10 NNW 1011,0 -
18.07.2018 18:00:00 28,1 23,8 24 13 N 1010,9 -
18.07.2018 17:00:00 27,9 24,7 21 11 N 1011,3 -
18.07.2018 16:00:00 26,9 25,3 26 14 NNE 1011,4 -
18.07.2018 15:00:00 27,2 25,5 26 14 NNE 1011,5 -
18.07.2018 14:00:00 27,4 25,8 26 14 N 1011,3 0,0
18.07.2018 13:00:00 27,2 25,5 29 16 NNW 1011,3 -
18.07.2018 12:00:00 26,8 25,2 28 15 N 1011,2 -
18.07.2018 11:00:00 26,7 26,0 28 15 N 1011,1 -
18.07.2018 10:00:00 26,1 25,9 22 12 NNW 1010,9 -
18.07.2018 09:00:00 25,4 25,3 21 11 NNW 1010,9 -
18.07.2018 08:00:00 23,9 23,8 18 10 WNW 1010,8 0,0
18.07.2018 07:00:00 22,0 21,9 18 10 WNW 1010,7 -
18.07.2018 06:00:00 21,3 21,2 15 8 NW 1010,4 -
18.07.2018 05:00:00 21,3 21,2 15 8 NW 1010,3 -
18.07.2018 04:00:00 21,5 21,4 13 7 WNW 1010,3 -
18.07.2018 03:00:00 21,7 21,6 13 7 NW 1010,4 -
18.07.2018 02:00:00 21,9 21,8 11 6 WNW 1010,6 0,0
18.07.2018 01:00:00 22,2 22,1 11 6 NW 1010,7 -
18.07.2018 00:00:00 22,8 22,7 13 7 NW 1010,7 -
17.07.2018 23:00:00 23,5 23,4 18 10 NNW 1010,5 -
17.07.2018 22:00:00 23,4 23,3 15 8 NNW 1010,2 -
17.07.2018 21:00:00 23,9 23,8 16 9 N 1009,4 -
17.07.2018 20:00:00 24,4 24,0 21 11 N 1009,0 -
17.07.2018 19:00:00 25,1 24,9 26 14 N 1008,6 -
17.07.2018 18:00:00 25,1 25,0 26 14 N 1008,2 -
17.07.2018 17:00:00 25,7 25,7 22 12 NNW 1008,0 -
17.07.2018 16:00:00 25,9 25,9 28 15 NNW 1008,0 -
17.07.2018 15:00:00 26,6 26,6 9 5 N 1007,7 -
17.07.2018 14:00:00 24,0 23,9 8 4 ENE 1007,8 -
17.07.2018 13:00:00 28,2 28,2 11 6 ESE 1007,3 -
17.07.2018 12:00:00 27,8 27,3 8 4 ESE 1007,2 -
17.07.2018 11:00:00 28,3 28,0 9 5 E 1007,4 -
17.07.2018 10:00:00 28,1 27,6 13 7 NNW 1007,5 -
17.07.2018 09:00:00 27,9 26,3 9 5 N 1007,8 -
17.07.2018 08:00:00 27,1 27,1 2 1 NNW 1008,0 0,0
17.07.2018 07:00:00 25,4 25,3 4 2 SW 1008,6 -
17.07.2018 06:00:00 25,3 25,2 11 6 SSE 1008,6 -
17.07.2018 05:00:00 25,3 25,2 5 3 E 1008,8 -
17.07.2018 04:00:00 25,0 24,9 4 2 W 1008,9 -
17.07.2018 03:00:00 25,3 25,2 4 2 SW 1009,3 -
17.07.2018 02:00:00 25,3 25,2 11 6 SSW 1009,2 0,0
17.07.2018 01:00:00 25,6 25,5 15 8 S 1009,6 -
17.07.2018 00:00:00 26,2 26,2 11 6 SSW 1010,4 -
16.07.2018 23:00:00 26,2 24,6 8 4 SSW 1011,3 -
16.07.2018 22:00:00 25,9 24,1 8 4 SSW 1012,4 -
16.07.2018 21:00:00 26,0 26,0 9 5 SSW 1012,2 -
16.07.2018 20:00:00 27,6 24,8 11 6 S 1011,8 0,0
16.07.2018 19:00:00 28,6 24,8 11 6 S 1011,6 -
16.07.2018 18:00:00 29,5 25,0 13 7 S 1012,0 -
16.07.2018 17:00:00 29,6 26,0 13 7 S 1012,1 -
16.07.2018 16:00:00 30,2 25,5 13 7 S 1012,3 -
16.07.2018 15:00:00 31,8 26,1 9 5 SE 1012,5 -
16.07.2018 14:00:00 30,0 24,4 5 3 NNE 1013,0 0,0
16.07.2018 13:00:00 29,1 26,7 11 6 NE 1013,1 -
16.07.2018 12:00:00 28,9 27,1 11 6 NNE 1013,3 -
16.07.2018 11:00:00 28,6 27,4 9 5 N 1013,3 -
16.07.2018 10:00:00 28,0 26,4 9 5 N 1012,6 -
16.07.2018 09:00:00 26,9 26,4 9 5 N 1012,4 -
16.07.2018 08:00:00 25,6 25,5 5 3 NNW 1012,0 0,0

tt = Température de l'air
td = dewpoint
ff = Vitesse du vent
dd = Direction du vent
ppp = reduced air pressure
rr = Quantités de précipitations

stations d'obs. à proximité